Eaglescliffe, United Kingdom
Current Conditions -  °F | °C
As of 2:20 PM on Thursday 30 Oct 2014 (Local Time) from EGNV Reporting Station
Haze Haze  
Wind Chill: 59°   Ceiling: Unl
Heat Index: 59°   Visibility: 2.5mi
Dew Point: 57°   Wind: 13mph
Humidity: 94%   Direction: 190°S
Pressure: 29.94"   Gusts: NA
Location:  54.53°N, 1.35°W
Report Text: EGNV 301420Z 19011KT 4000 HZ FEW010 SCT022 15/14 Q1014
Loading
Personal Weather Stations






























Interactive Weather Map
Tropical Storm Tracking
New forecast layout! Learn more

10-Day Weather Forecast

Advertisements
Track Severe Weather on mobile